createdAt,value
2023-04-01T00:03:06.232Z,10.70
2023-04-01T00:07:13.045Z,10.70
2023-04-01T00:11:20.582Z,10.70
2023-04-01T00:15:27.449Z,10.60
2023-04-01T00:19:34.108Z,10.60
2023-04-01T00:23:40.826Z,10.60
2023-04-01T00:27:47.724Z,10.60
2023-04-01T00:31:54.435Z,10.70
2023-04-01T00:36:12.196Z,10.60
2023-04-01T00:40:29.724Z,10.60
2023-04-01T00:44:39.416Z,10.60
2023-04-01T00:48:51.254Z,11.40
2023-04-01T00:52:59.035Z,10.60
2023-04-01T00:57:28.707Z,10.60
2023-04-01T01:01:36.900Z,10.60
2023-04-01T01:06:31.080Z,10.70
2023-04-01T01:10:40.257Z,10.70
2023-04-01T01:15:09.656Z,10.70
2023-04-01T01:19:36.113Z,10.60
2023-04-01T01:23:54.673Z,10.70
2023-04-01T01:28:36.304Z,10.60
2023-04-01T01:33:11.972Z,10.60
2023-04-01T01:37:22.053Z,10.70
2023-04-01T01:41:30.268Z,10.70
2023-04-01T01:45:41.440Z,10.70
2023-04-01T01:49:49.312Z,10.70
2023-04-01T01:53:56.176Z,10.60
2023-04-01T01:58:08.805Z,10.70
2023-04-01T02:02:17.010Z,10.60
2023-04-01T02:06:28.505Z,10.60
2023-04-01T02:10:39.960Z,10.70
2023-04-01T02:15:08.008Z,11.00
2023-04-01T02:19:16.278Z,10.70
2023-04-01T02:23:23.425Z,10.70
2023-04-01T02:27:31.374Z,10.60
2023-04-01T02:31:38.280Z,10.60
2023-04-01T02:35:45.356Z,10.60
2023-04-01T02:39:51.990Z,10.60
2023-04-01T02:43:59.491Z,10.60
2023-04-01T02:48:06.538Z,10.60
2023-04-01T02:52:14.018Z,10.60
2023-04-01T02:56:20.935Z,10.60
2023-04-01T03:00:27.631Z,10.50
2023-04-01T03:04:34.421Z,10.50
2023-04-01T03:08:41.361Z,10.50
2023-04-01T03:12:48.072Z,10.60
2023-04-01T03:16:54.938Z,10.50
2023-04-01T03:21:19.545Z,10.50
2023-04-01T03:25:26.254Z,10.50
2023-04-01T03:29:33.312Z,10.50
2023-04-01T03:33:40.872Z,10.50
2023-04-01T03:37:47.585Z,10.50
2023-04-01T03:41:54.269Z,10.40
2023-04-01T03:46:01.197Z,10.40
2023-04-01T03:50:08.749Z,10.50
2023-04-01T03:54:15.593Z,10.50
2023-04-01T03:58:22.237Z,10.50
2023-04-01T04:02:28.960Z,10.50
2023-04-01T04:06:35.782Z,10.50
2023-04-01T04:10:42.970Z,10.50
2023-04-01T04:14:49.607Z,10.50
2023-04-01T04:18:56.306Z,10.50
2023-04-01T04:23:02.960Z,10.40
2023-04-01T04:27:09.641Z,10.40
2023-04-01T04:31:21.758Z,10.40
2023-04-01T04:35:28.473Z,10.50
2023-04-01T04:39:35.290Z,10.50
2023-04-01T04:43:43.093Z,10.40
2023-04-01T04:47:49.894Z,10.40
2023-04-01T04:51:56.625Z,10.40
2023-04-01T04:56:03.267Z,10.50
2023-04-01T05:00:13.854Z,10.50
2023-04-01T05:04:20.628Z,10.50
2023-04-01T05:08:27.300Z,10.50
2023-04-01T05:12:37.010Z,10.60
2023-04-01T05:16:43.773Z,10.60
2023-04-01T05:20:52.578Z,10.60
2023-04-01T05:25:02.033Z,10.60
2023-04-01T05:29:08.757Z,10.60
2023-04-01T05:33:15.705Z,10.60
2023-04-01T05:37:23.841Z,10.60
2023-04-01T05:41:30.840Z,10.60
2023-04-01T05:45:37.752Z,10.60
2023-04-01T05:49:44.403Z,10.60
2023-04-01T05:53:51.256Z,10.70
2023-04-01T05:57:58.111Z,10.70
2023-04-01T06:02:05.298Z,10.70
2023-04-01T06:06:26.134Z,10.60
2023-04-01T06:11:00.650Z,10.70
2023-04-01T06:15:18.340Z,10.80
2023-04-01T06:19:37.424Z,10.80
2023-04-01T06:24:17.344Z,11.00
2023-04-01T06:28:33.242Z,10.80
2023-04-01T06:33:29.714Z,10.80
2023-04-01T06:37:50.483Z,10.80
2023-04-01T06:42:18.979Z,10.80
2023-04-01T06:46:58.464Z,10.80
2023-04-01T06:51:17.609Z,10.90
2023-04-01T06:55:36.778Z,10.90
2023-04-01T06:59:44.220Z,10.90
2023-04-01T07:03:58.036Z,10.80
2023-04-01T07:08:11.296Z,10.90
2023-04-01T07:12:45.229Z,10.90
2023-04-01T07:17:13.221Z,10.90
2023-04-01T07:21:26.013Z,10.90
2023-04-01T07:25:40.672Z,10.90
2023-04-01T07:29:47.931Z,10.80
2023-04-01T07:34:23.081Z,10.70
2023-04-01T07:38:41.801Z,10.70
2023-04-01T07:43:12.663Z,10.60
2023-04-01T07:47:34.725Z,10.60
2023-04-01T07:52:09.124Z,10.60
2023-04-01T07:56:43.544Z,10.60
2023-04-01T08:01:04.501Z,10.60
2023-04-01T08:05:31.698Z,10.70
2023-04-01T08:09:52.006Z,10.60
2023-04-01T08:14:16.318Z,10.60
2023-04-01T08:18:22.914Z,10.70
2023-04-01T08:22:41.519Z,10.70
2023-04-01T08:26:53.368Z,10.90
2023-04-01T08:31:07.306Z,11.10
2023-04-01T08:35:34.855Z,11.20
2023-04-01T08:39:51.121Z,11.50
2023-04-01T08:44:19.676Z,11.80
2023-04-01T08:48:42.420Z,12.20
2023-04-01T08:53:00.523Z,12.60
2023-04-01T08:57:35.640Z,12.70
2023-04-01T09:02:00.221Z,12.90
2023-04-01T09:06:26.121Z,12.90
2023-04-01T09:10:54.033Z,12.80
2023-04-01T09:15:18.829Z,12.70
2023-04-01T09:19:54.184Z,12.60
2023-04-01T09:24:35.834Z,12.60
2023-04-01T09:29:04.225Z,12.50
2023-04-01T09:33:18.244Z,12.50
2023-04-01T09:37:52.064Z,12.70
2023-04-01T09:42:01.793Z,13.00
2023-04-01T09:46:24.710Z,13.20
2023-04-01T09:51:06.725Z,13.60
2023-04-01T09:55:22.580Z,13.90
2023-04-01T09:59:41.329Z,13.90
2023-04-01T10:04:08.023Z,13.90
2023-04-01T10:08:20.343Z,13.90
2023-04-01T10:12:49.804Z,14.00
2023-04-01T10:17:15.382Z,14.00
2023-04-01T10:21:48.810Z,14.20
2023-04-01T10:26:16.874Z,14.30
2023-04-01T10:30:38.473Z,14.60
2023-04-01T10:35:15.414Z,14.70
2023-04-01T10:40:18.682Z,14.80
2023-04-01T10:44:40.125Z,14.80
2023-04-01T10:49:01.725Z,14.70
2023-04-01T10:53:26.441Z,14.40
2023-04-01T10:57:47.749Z,14.10
2023-04-01T11:02:45.280Z,14.00
2023-04-01T11:07:18.562Z,14.00
2023-04-01T11:12:02.617Z,14.20
2023-04-01T11:16:44.345Z,14.60
2023-04-01T11:21:03.857Z,14.60
2023-04-01T11:25:58.912Z,14.40
2023-04-01T11:30:19.550Z,14.30
2023-04-01T11:34:57.404Z,14.30
2023-04-01T11:39:47.426Z,14.20
2023-04-01T11:44:19.986Z,14.00
2023-04-01T11:48:51.979Z,13.80
2023-04-01T11:53:20.364Z,13.50
2023-04-01T11:57:59.153Z,13.30
2023-04-01T12:02:21.280Z,13.40
2023-04-01T12:06:31.159Z,13.80
2023-04-01T12:10:49.905Z,14.10
2023-04-01T12:15:17.908Z,14.50
2023-04-01T12:19:36.679Z,14.90
2023-04-01T12:23:44.287Z,15.10
2023-04-01T12:27:54.034Z,14.60
2023-04-01T12:32:10.815Z,13.60
2023-04-01T12:36:41.474Z,12.60
2023-04-01T12:41:31.410Z,12.00
2023-04-01T12:46:02.114Z,11.80
2023-04-01T12:50:26.744Z,11.80
2023-04-01T12:55:04.120Z,11.80
2023-04-01T12:59:16.567Z,11.60
2023-04-01T13:03:45.722Z,11.60
2023-04-01T13:07:55.002Z,11.70
2023-04-01T13:12:30.971Z,11.80
2023-04-01T13:16:39.911Z,12.00
2023-04-01T13:21:19.996Z,12.00
2023-04-01T13:25:48.237Z,12.30
2023-04-01T13:30:21.868Z,12.40
2023-04-01T13:34:33.447Z,12.60
2023-04-01T13:39:16.862Z,12.60
2023-04-01T13:43:25.706Z,12.60
2023-04-01T13:48:23.797Z,12.60
2023-04-01T13:53:07.514Z,12.60
2023-04-01T13:57:42.961Z,12.70
2023-04-01T14:01:58.397Z,12.60
2023-04-01T14:06:27.567Z,12.50
2023-04-01T14:11:08.629Z,12.40
2023-04-01T14:15:30.567Z,12.40
2023-04-01T14:20:04.955Z,12.40
2023-04-01T14:24:36.949Z,12.50
2023-04-01T14:28:43.589Z,12.40
2023-04-01T14:32:59.370Z,12.20
2023-04-01T14:37:35.506Z,12.00
2023-04-01T14:42:22.424Z,11.90
2023-04-01T14:46:45.858Z,11.90
2023-04-01T14:50:55.681Z,11.90
2023-04-01T14:55:19.710Z,11.90
2023-04-01T14:59:27.935Z,11.90
2023-04-01T15:04:14.332Z,11.60
2023-04-01T15:08:27.587Z,11.40
2023-04-01T15:12:34.187Z,11.40
2023-04-01T15:17:08.272Z,11.30
2023-04-01T15:21:51.456Z,11.20
2023-04-01T15:26:22.385Z,11.10
2023-04-01T15:30:54.924Z,11.10
2023-04-01T15:35:16.442Z,11.10
2023-04-01T15:39:38.500Z,11.20
2023-04-01T15:43:50.634Z,11.30
2023-04-01T15:48:14.502Z,11.10
2023-04-01T15:52:48.761Z,11.10
2023-04-01T15:57:27.535Z,11.00
2023-04-01T16:02:22.764Z,10.90
2023-04-01T16:07:14.707Z,10.90
2023-04-01T16:11:41.918Z,10.80
2023-04-01T16:16:19.511Z,10.60
2023-04-01T16:20:52.178Z,10.60
2023-04-01T16:25:17.612Z,10.50
2023-04-01T16:29:29.945Z,10.40
2023-04-01T16:33:47.577Z,10.20
2023-04-01T16:38:09.579Z,10.30
2023-04-01T16:42:45.471Z,10.20
2023-04-01T16:46:54.226Z,10.90
2023-04-01T16:51:13.710Z,10.00
2023-04-01T16:55:23.310Z,9.90
2023-04-01T16:59:55.953Z,9.90
2023-04-01T17:04:09.034Z,9.80
2023-04-01T17:08:28.021Z,9.80
2023-04-01T17:13:03.221Z,9.70
2023-04-01T17:17:19.282Z,9.70
2023-04-01T17:21:36.619Z,9.70
2023-04-01T17:25:56.820Z,9.80
2023-04-01T17:30:18.619Z,9.60
2023-04-01T17:34:43.711Z,9.50
2023-04-01T17:39:09.075Z,9.40
2023-04-01T17:43:41.522Z,9.30
2023-04-01T17:48:00.827Z,9.30
2023-04-01T17:52:38.744Z,9.30
2023-04-01T17:57:22.799Z,9.30
2023-04-01T18:01:56.969Z,9.30
2023-04-01T18:06:12.674Z,9.20
2023-04-01T18:10:46.973Z,9.20
2023-04-01T18:15:15.290Z,9.20
2023-04-01T18:19:52.898Z,9.10
2023-04-01T18:24:13.820Z,9.00
2023-04-01T18:28:28.408Z,8.90
2023-04-01T18:32:58.077Z,9.00
2023-04-01T18:37:43.188Z,8.90
2023-04-01T18:42:25.286Z,8.90
2023-04-01T18:46:54.158Z,8.90
2023-04-01T18:51:27.906Z,8.80
2023-04-01T18:55:43.982Z,8.70
2023-04-01T19:00:04.061Z,8.70
2023-04-01T19:04:27.619Z,8.70
2023-04-01T19:08:37.261Z,8.70
2023-04-01T19:13:13.325Z,8.60
2023-04-01T19:17:23.094Z,8.50
2023-04-01T19:21:35.815Z,8.50
2023-04-01T19:26:05.856Z,8.40
2023-04-01T19:30:33.282Z,8.20
2023-04-01T19:35:01.756Z,8.20
2023-04-01T19:39:50.113Z,9.20
2023-04-01T19:44:21.873Z,8.20
2023-04-01T19:48:47.665Z,8.20
2023-04-01T19:53:00.594Z,8.10
2023-04-01T19:57:22.872Z,8.00
2023-04-01T20:01:44.855Z,8.00
2023-04-01T20:05:58.019Z,7.90
2023-04-01T20:10:26.362Z,7.80
2023-04-01T20:14:51.142Z,7.70
2023-04-01T20:19:03.066Z,7.60
2023-04-01T20:23:38.856Z,7.50
2023-04-01T20:27:52.877Z,7.50
2023-04-01T20:32:13.837Z,7.60
2023-04-01T20:36:48.701Z,7.60
2023-04-01T20:41:18.291Z,7.50
2023-04-01T20:45:30.889Z,7.60
2023-04-01T20:49:41.765Z,7.50
2023-04-01T20:54:01.507Z,7.50
2023-04-01T20:58:36.489Z,7.50
2023-04-01T21:02:54.123Z,7.40
2023-04-01T21:07:29.161Z,7.40
2023-04-01T21:11:50.718Z,7.40
2023-04-01T21:16:03.339Z,7.50
2023-04-01T21:20:48.338Z,7.40
2023-04-01T21:25:04.252Z,7.50
2023-04-01T21:29:41.175Z,6.50
2023-04-01T21:34:12.511Z,7.40
2023-04-01T21:38:49.773Z,7.30
2023-04-01T21:43:05.113Z,7.20
2023-04-01T21:47:50.812Z,7.20
2023-04-01T21:52:15.576Z,7.10
2023-04-01T21:56:25.322Z,7.00
2023-04-01T22:00:52.462Z,6.90
2023-04-01T22:05:17.822Z,6.90
2023-04-01T22:09:56.031Z,6.80
2023-04-01T22:14:13.524Z,6.70
2023-04-01T22:18:29.900Z,6.70
2023-04-01T22:22:53.366Z,6.70
2023-04-01T22:27:13.981Z,6.80
2023-04-01T22:31:34.626Z,6.70
2023-04-01T22:35:58.194Z,6.70
2023-04-01T22:40:14.601Z,6.70
2023-04-01T22:44:40.282Z,6.60
2023-04-01T22:48:50.342Z,6.60
2023-04-01T22:53:04.098Z,6.50
2023-04-01T22:57:16.135Z,6.60
2023-04-01T23:01:29.067Z,6.60
2023-04-01T23:05:52.015Z,6.60
2023-04-01T23:10:02.202Z,6.60
2023-04-01T23:14:29.746Z,6.50
2023-04-01T23:18:58.412Z,6.40
2023-04-01T23:23:31.369Z,6.30
2023-04-01T23:27:46.577Z,6.30
2023-04-01T23:32:13.899Z,6.20
2023-04-01T23:36:20.923Z,6.20
2023-04-01T23:40:27.613Z,6.20
2023-04-01T23:44:36.307Z,6.20
2023-04-01T23:48:47.470Z,6.30
2023-04-01T23:53:18.481Z,6.30
2023-04-01T23:57:31.979Z,6.30
